Time;durP1;ratioP1;P1;durP2;ratioP2;P2;SDS_P1;SDS_P2;PMS_P1;PMS_P2;Temp;Humidity;BMP_temperature;BMP_pressure;BME280_temperature;BME280_humidity;BME280_pressure;Samples;Min_cycle;Max_cycle;Signal;HPM_P1;HPM_P2
2022/07/15 00:00:28;;;;;;;;;3.75;2.00;;;;;-146.67;27.51;74108.63;5062924;28;62004;-76
2022/07/15 00:02:54;;;;;;;;;2.00;2.00;;;;;-146.67;27.73;74120.59;5063178;28;61865;-76
2022/07/15 00:05:20;;;;;;;;;2.00;2.00;;;;;-146.67;27.45;74124.59;5062801;28;61931;-76
2022/07/15 00:07:46;;;;;;;;;1.00;1.00;;;;;-146.67;27.82;74132.56;5061391;28;63301;-76
2022/07/15 00:10:15;;;;;;;;;3.33;1.67;;;;;-146.67;27.79;74132.56;5060985;28;61844;-76
2022/07/15 00:12:45;;;;;;;;;3.00;2.00;;;;;-146.67;27.84;74156.53;5064235;28;61795;-76
2022/07/15 00:15:11;;;;;;;;;2.00;2.00;;;;;-146.67;27.93;74150.53;5062563;28;61798;-76
2022/07/15 00:17:37;;;;;;;;;2.75;1.75;;;;;-146.67;27.93;74166.50;5061260;28;64484;-76
2022/07/15 00:20:03;;;;;;;;;3.50;1.50;;;;;-146.67;27.84;74168.50;5062496;28;62304;-76
2022/07/15 00:22:29;;;;;;;;;2.00;2.00;;;;;-146.67;27.99;74178.50;5063004;28;61710;-76
2022/07/15 00:24:54;;;;;;;;;2.00;2.00;;;;;-146.67;27.96;74182.50;5063764;28;61754;-76
2022/07/15 00:27:20;;;;;;;;;3.00;2.00;;;;;-146.67;27.84;74182.50;5063328;28;63012;-76
2022/07/15 00:29:45;;;;;;;;;2.00;1.75;;;;;-146.67;27.67;74188.47;5064192;28;61770;-76
2022/07/15 00:32:10;;;;;;;;;2.50;1.50;;;;;-146.67;27.16;74196.47;5064053;28;61775;-76
2022/07/15 00:34:36;;;;;;;;;2.50;2.50;;;;;-146.67;28.17;74212.44;5079620;28;61944;-76
2022/07/15 00:37:02;;;;;;;;;2.25;2.25;;;;;-146.67;27.95;74214.44;5063415;28;61870;-76
2022/07/15 00:39:27;;;;;;;;;2.00;2.00;;;;;-146.67;27.90;74226.41;5062358;28;61948;-76
2022/07/15 00:41:53;;;;;;;;;2.00;2.00;;;;;-146.67;27.83;74224.41;5062544;28;61944;-76
2022/07/15 00:44:18;;;;;;;;;4.25;2.75;;;;;-146.67;28.24;74236.38;5062599;28;61911;-76
2022/07/15 00:46:43;;;;;;;;;3.00;2.25;;;;;-146.67;28.17;74244.38;5062900;28;63461;-76
2022/07/15 00:49:10;;;;;;;;;1.00;1.00;;;;;-146.67;28.40;74256.34;5062318;28;62050;-76
2022/07/15 00:51:39;;;;;;;;;1.75;1.75;;;;;-146.67;28.48;74258.34;5063718;28;61820;-76
2022/07/15 00:54:09;;;;;;;;;2.00;2.00;;;;;-146.67;28.30;74268.31;5062800;28;61869;-76
2022/07/15 00:56:38;;;;;;;;;4.00;2.00;;;;;-146.67;28.51;74270.31;5062858;28;61765;-76
2022/07/15 00:59:05;;;;;;;;;2.75;2.50;;;;;-146.67;28.44;74282.31;5079061;28;61869;-76
2022/07/15 01:01:32;;;;;;;;;4.00;2.00;;;;;-146.67;28.41;74282.31;5061962;28;61734;-76
2022/07/15 01:03:59;;;;;;;;;3.25;3.25;;;;;-146.67;28.36;74288.28;5062596;28;62150;-76
2022/07/15 01:06:26;;;;;;;;;3.25;3.00;;;;;-146.67;28.53;74288.28;5062716;28;61917;-75
2022/07/15 01:08:52;;;;;;;;;2.25;2.00;;;;;-146.67;28.64;74290.28;5062019;28;61998;-76
2022/07/15 01:11:18;;;;;;;;;1.50;1.50;;;;;-146.67;28.18;74298.28;5061739;28;61967;-76
2022/07/15 01:13:43;;;;;;;;;1.75;1.75;;;;;-146.67;28.31;74316.25;5061604;28;61862;-76
2022/07/15 01:16:09;;;;;;;;;1.25;1.25;;;;;-146.67;28.41;74312.25;5062824;28;62711;-76
2022/07/15 01:18:34;;;;;;;;;2.25;2.00;;;;;-146.67;28.55;74308.25;5062849;28;61766;-76
2022/07/15 01:21:00;;;;;;;;;4.00;1.25;;;;;-146.67;28.44;74322.22;5063307;28;61928;-76
2022/07/15 01:23:25;;;;;;;;;1.75;1.50;;;;;-146.67;28.22;74332.22;5062148;28;61755;-76
2022/07/15 01:25:53;;;;;;;;;1.75;1.75;;;;;-146.67;28.34;74332.22;5061161;28;63530;-76
2022/07/15 01:28:19;;;;;;;;;2.50;1.00;;;;;-146.67;28.33;74332.22;5061625;28;61998;-76
2022/07/15 01:30:45;;;;;;;;;2.25;2.25;;;;;-146.67;28.37;74334.22;5061424;28;62171;-76
2022/07/15 01:33:11;;;;;;;;;2.00;2.00;;;;;-146.67;28.33;74342.19;5061549;28;62146;-76
2022/07/15 01:35:37;;;;;;;;;3.00;1.50;;;;;-146.67;28.27;74358.16;5060683;28;64644;-76
2022/07/15 01:38:03;;;;;;;;;3.00;1.75;;;;;-146.67;28.36;74364.16;5063196;28;61907;-76
2022/07/15 01:40:28;;;;;;;;;1.25;1.25;;;;;-146.67;28.30;74372.13;5062917;28;61895;-76
2022/07/15 01:42:54;;;;;;;;;8.25;1.25;;;;;-146.67;28.19;74374.13;5062773;28;62206;-76
2022/07/15 01:45:19;;;;;;;;;1.00;1.00;;;;;-146.67;28.58;74378.13;5062345;28;62035;-76
2022/07/15 01:47:47;;;;;;;;;2.00;2.00;;;;;-146.67;28.21;74372.13;5061316;28;61705;-76
2022/07/15 01:50:13;;;;;;;;;1.00;1.00;;;;;-146.67;28.48;74390.09;5063230;28;62022;-76
2022/07/15 01:52:39;;;;;;;;;2.50;2.50;;;;;-146.67;28.56;74392.09;5062748;28;61947;-75
2022/07/15 01:55:06;;;;;;;;;2.50;1.00;;;;;-146.67;28.34;74388.09;5060664;28;64033;-76
2022/07/15 01:57:31;;;;;;;;;2.00;2.00;;;;;-146.67;28.26;74390.09;5062932;28;61809;-76
2022/07/15 01:59:57;;;;;;;;;4.00;1.00;;;;;-146.67;28.36;74394.09;5060839;28;61836;-76
2022/07/15 02:02:22;;;;;;;;;1.00;1.00;;;;;-146.67;28.55;74400.09;5061582;28;61861;-76
2022/07/15 02:04:48;;;;;;;;;1.25;1.00;;;;;-146.67;28.38;74404.09;5061871;28;61825;-76
2022/07/15 02:07:14;;;;;;;;;1.25;1.00;;;;;-146.67;28.43;74404.09;5062711;28;62162;-76
2022/07/15 02:09:40;;;;;;;;;0.75;0.75;;;;;-146.67;28.16;74406.06;5060606;28;61820;-75
2022/07/15 02:12:06;;;;;;;;;2.75;2.00;;;;;-146.67;28.50;74412.06;5062525;28;61718;-76
2022/07/15 02:14:33;;;;;;;;;0.75;0.75;;;;;-146.67;28.61;74422.03;5077084;28;63768;-75
2022/07/15 02:16:59;;;;;;;;;0.00;0.00;;;;;-146.67;28.10;74432.03;5060923;28;61845;-76
2022/07/15 02:19:24;;;;;;;;;2.00;1.00;;;;;-146.67;28.54;74446.00;5061115;28;61843;-76
2022/07/15 02:21:50;;;;;;;;;2.00;2.00;;;;;-146.67;28.34;74456.00;5062377;28;62111;-75
2022/07/15 02:24:18;;;;;;;;;1.00;1.00;;;;;-146.67;28.50;74459.97;5060709;28;63912;-76
2022/07/15 02:26:44;;;;;;;;;2.75;2.00;;;;;-146.67;28.52;74459.97;5060760;28;61851;-75
2022/07/15 02:29:10;;;;;;;;;1.00;1.00;;;;;-146.67;28.78;74471.97;5062139;28;62084;-76
2022/07/15 02:31:35;;;;;;;;;3.00;1.00;;;;;-146.67;28.67;74481.94;5078122;28;61871;-76
2022/07/15 02:34:01;;;;;;;;;1.75;1.75;;;;;-146.67;28.71;74483.94;5061971;28;62089;-76
2022/07/15 02:36:27;;;;;;;;;1.00;1.00;;;;;-146.67;28.58;74481.94;5060616;28;61948;-76
2022/07/15 02:38:52;;;;;;;;;1.75;1.75;;;;;-146.67;28.96;74483.94;5061939;28;61959;-76
2022/07/15 02:41:18;;;;;;;;;2.00;2.00;;;;;-146.67;29.01;74483.94;5062604;28;61781;-75
2022/07/15 02:43:44;;;;;;;;;2.75;1.25;;;;;-146.67;28.93;74487.94;5059727;28;63632;-76
2022/07/15 02:46:10;;;;;;;;;2.25;0.50;;;;;-146.67;28.84;74499.91;5060930;28;61860;-76
2022/07/15 02:48:39;;;;;;;;;2.50;1.25;;;;;-146.67;29.08;74495.91;5062061;28;61837;-76
2022/07/15 02:51:04;;;;;;;;;4.75;2.00;;;;;-146.67;28.69;74505.91;5062051;28;61771;-75
2022/07/15 02:53:30;;;;;;;;;3.00;2.00;;;;;-146.67;29.05;74511.88;5061586;28;62916;-76
2022/07/15 02:55:58;;;;;;;;;2.75;2.75;;;;;-146.67;29.13;74523.88;5060522;28;62115;-76
2022/07/15 02:58:24;;;;;;;;;4.75;2.00;;;;;-146.67;29.15;74531.84;5061703;28;61773;-76
2022/07/15 03:00:49;;;;;;;;;2.25;2.00;;;;;-146.67;29.19;74541.84;5062052;28;61948;-76
2022/07/15 03:03:16;;;;;;;;;2.00;2.00;;;;;-146.67;29.24;74555.81;5061602;28;62066;-75
2022/07/15 03:05:41;;;;;;;;;3.00;3.00;;;;;-146.67;29.22;74567.78;5061689;28;61861;-76
2022/07/15 03:08:07;;;;;;;;;4.00;2.25;;;;;-146.67;29.29;74569.78;5060308;28;61884;-75
2022/07/15 03:10:32;;;;;;;;;5.00;2.00;;;;;-146.67;29.26;74565.78;5042672;28;61739;-76
2022/07/15 03:12:57;;;;;;;;;1.25;1.25;;;;;-146.67;29.25;74557.81;5040408;28;63250;-76
2022/07/15 03:15:23;;;;;;;;;2.75;2.75;;;;;-146.67;29.23;74567.78;5041899;28;61951;-75
2022/07/15 03:17:48;;;;;;;;;3.75;2.50;;;;;-146.67;29.46;74585.75;5040140;28;61952;-76
2022/07/15 03:20:14;;;;;;;;;3.00;2.00;;;;;-146.67;29.37;74593.75;5040458;28;61793;-76
2022/07/15 03:22:40;;;;;;;;;3.00;1.00;;;;;-146.67;29.58;74593.75;5043235;28;63761;-76
2022/07/15 03:25:06;;;;;;;;;2.00;2.00;;;;;-146.67;29.57;74599.72;5044808;28;61899;-75
2022/07/15 03:27:31;;;;;;;;;3.00;2.75;;;;;-146.67;29.38;74599.72;5044856;28;61756;-76
2022/07/15 03:29:56;;;;;;;;;1.00;1.00;;;;;-146.67;29.44;74605.72;5045071;28;61869;-76
2022/07/15 03:32:22;;;;;;;;;2.75;2.75;;;;;-146.67;29.46;74609.72;5044340;28;62691;-75
2022/07/15 03:34:51;;;;;;;;;6.75;3.00;;;;;-146.67;29.29;74611.72;5043635;28;61917;-75
2022/07/15 03:37:16;;;;;;;;;3.00;2.00;;;;;-146.67;29.56;74621.69;5044978;28;61770;-76
2022/07/15 03:39:42;;;;;;;;;4.00;4.00;;;;;-146.67;29.64;74615.72;5044784;28;61854;-76
2022/07/15 03:42:07;;;;;;;;;2.50;2.00;;;;;-146.67;29.90;74611.72;5044061;28;61913;-76
2022/07/15 03:44:33;;;;;;;;;3.50;3.25;;;;;-146.67;29.92;74617.69;5043238;28;61860;-76
2022/07/15 03:46:58;;;;;;;;;3.00;3.00;;;;;-146.67;29.78;74617.69;5044769;28;61789;-75
2022/07/15 03:49:24;;;;;;;;;2.00;2.00;;;;;-146.67;29.75;74623.69;5043436;28;62135;-75
2022/07/15 03:51:49;;;;;;;;;4.75;4.00;;;;;-146.67;30.04;74627.69;5042555;28;63964;-75
2022/07/15 03:54:15;;;;;;;;;6.00;3.00;;;;;-146.67;29.83;74631.69;5044506;28;61967;-76
2022/07/15 03:56:40;;;;;;;;;1.50;1.00;;;;;-146.67;29.99;74635.66;5044452;28;61757;-76
2022/07/15 03:59:06;;;;;;;;;2.00;2.00;;;;;-146.67;30.03;74635.66;5044373;28;61706;-76
2022/07/15 04:01:32;;;;;;;;;3.50;3.50;;;;;-146.67;29.89;74635.66;5043850;28;61798;-75
2022/07/15 04:03:58;;;;;;;;;2.00;2.00;;;;;-146.67;29.69;74629.69;5043002;28;61900;-76
2022/07/15 04:06:24;;;;;;;;;4.75;3.00;;;;;-146.67;29.86;74631.69;5042808;28;61933;-76
2022/07/15 04:08:50;;;;;;;;;3.50;2.75;;;;;-146.67;29.51;74629.69;5055543;28;61809;-76
2022/07/15 04:11:17;;;;;;;;;1.75;1.75;;;;;-146.67;29.66;74629.69;5063467;28;61942;-75
2022/07/15 04:13:42;;;;;;;;;3.25;2.00;;;;;-146.67;29.85;74629.69;5063951;28;61919;-76
2022/07/15 04:16:11;;;;;;;;;2.75;1.25;;;;;-146.67;30.01;74629.69;5062857;28;61927;-75
2022/07/15 04:18:37;;;;;;;;;2.00;2.00;;;;;-146.67;29.80;74641.66;5064497;28;61915;-75
2022/07/15 04:21:03;;;;;;;;;4.00;3.00;;;;;-146.67;29.95;74647.66;5061907;28;63976;-75
2022/07/15 04:23:28;;;;;;;;;3.75;3.00;;;;;-146.67;29.75;74645.66;5062878;28;61880;-76
2022/07/15 04:25:54;;;;;;;;;2.00;2.00;;;;;-146.67;29.71;74643.66;5064116;28;61974;-75
2022/07/15 04:28:21;;;;;;;;;3.25;2.00;;;;;-146.67;29.87;74639.66;5064094;28;61837;-76
2022/07/15 04:30:46;;;;;;;;;2.25;2.25;;;;;-146.67;29.92;74637.66;5063805;28;61853;-75
2022/07/15 04:33:12;;;;;;;;;4.75;2.75;;;;;-146.67;29.70;74643.66;5063335;28;62072;-75
2022/07/15 04:35:38;;;;;;;;;3.25;2.25;;;;;-146.67;29.91;74639.66;5063926;28;61887;-75
2022/07/15 04:38:04;;;;;;;;;3.00;3.00;;;;;-146.67;29.89;74639.66;5064032;28;61761;-76
2022/07/15 04:40:31;;;;;;;;;2.50;2.00;;;;;-146.67;30.09;74645.66;5078473;28;63839;-76
2022/07/15 04:42:58;;;;;;;;;5.00;2.25;;;;;-146.67;30.12;74653.63;5061909;28;61868;-76
2022/07/15 04:45:24;;;;;;;;;2.75;2.25;;;;;-146.67;29.75;74647.66;5063816;28;61954;-76
2022/07/15 04:47:49;;;;;;;;;2.00;2.00;;;;;-146.67;29.78;74647.66;5062448;28;61787;-75
2022/07/15 04:52:59;;;;;;;;;2.00;2.00;;;;;-146.67;30.06;74645.66;5063341;28;62037;-77
2022/07/15 04:55:24;;;;;;;;;3.00;3.00;;;;;-146.67;30.12;74649.66;5062375;28;61955;-76
2022/07/15 04:57:50;;;;;;;;;1.00;1.00;;;;;-146.67;30.25;74649.66;5079438;28;61815;-76
2022/07/15 05:00:15;;;;;;;;;3.25;2.00;;;;;-146.67;30.08;74641.66;5062722;28;61736;-75
2022/07/15 05:02:40;;;;;;;;;2.00;2.00;;;;;-146.67;30.12;74639.66;5063569;28;61805;-75
2022/07/15 05:05:07;;;;;;;;;3.75;1.25;;;;;-146.67;30.15;74619.69;5078715;28;61962;-75
2022/07/15 05:07:33;;;;;;;;;2.00;2.00;;;;;-146.67;30.31;74629.69;5063670;28;61921;-76
2022/07/15 05:09:58;;;;;;;;;4.00;4.00;;;;;-146.67;30.18;74637.66;5048229;28;63133;-75
2022/07/15 05:12:23;;;;;;;;;4.50;3.75;;;;;-146.67;30.56;74635.66;5041538;28;61857;-76
2022/07/15 05:14:49;;;;;;;;;3.25;2.00;;;;;-146.67;30.13;74631.69;5041746;28;62215;-75
2022/07/15 05:17:14;;;;;;;;;4.75;4.25;;;;;-146.67;30.50;74631.69;5043271;28;62133;-76
2022/07/15 05:19:40;;;;;;;;;4.00;2.00;;;;;-146.67;30.43;74629.69;5041336;28;63527;-75
2022/07/15 05:22:05;;;;;;;;;3.75;0.00;;;;;-146.67;30.26;74619.69;5041658;28;62334;-76
2022/07/15 05:24:31;;;;;;;;;3.00;3.00;;;;;-146.67;30.32;74625.69;5041707;28;61825;-76
2022/07/15 05:26:58;;;;;;;;;3.00;1.50;;;;;-146.67;30.28;74625.69;5042892;28;61905;-76
2022/07/15 05:29:24;;;;;;;;;2.25;2.25;;;;;-146.67;30.21;74611.72;5041152;28;64024;-76
2022/07/15 05:31:50;;;;;;;;;3.50;3.50;;;;;-146.67;30.23;74621.69;5042975;28;61805;-75
2022/07/15 05:34:16;;;;;;;;;4.25;3.00;;;;;-146.67;30.34;74619.69;5041632;28;61978;-75
2022/07/15 05:36:41;;;;;;;;;3.50;2.00;;;;;-146.67;30.68;74615.72;5045209;28;61919;-74
2022/07/15 05:39:07;;;;;;;;;4.00;4.00;;;;;-146.67;30.20;74621.69;5062393;28;62086;-77
2022/07/15 05:41:33;;;;;;;;;4.00;1.75;;;;;-146.67;30.16;74601.72;5063053;28;61733;-76
2022/07/15 05:44:00;;;;;;;;;3.25;2.25;;;;;-146.67;29.81;74583.75;5060672;28;61932;-76
2022/07/15 05:46:25;;;;;;;;;3.25;3.00;;;;;-146.67;29.83;74555.81;5055152;28;61717;-80
2022/07/15 05:48:50;;;;;;;;;4.00;2.75;;;;;-146.67;29.88;74529.84;5040950;28;63745;-77
2022/07/15 05:51:16;;;;;;;;;2.00;2.00;;;;;-146.67;29.65;74493.91;5040829;28;61941;-77
2022/07/15 05:53:42;;;;;;;;;3.00;3.00;;;;;-146.67;29.17;74424.03;5042689;28;61801;-77
2022/07/15 05:56:07;;;;;;;;;5.00;2.75;;;;;-146.67;29.08;74362.16;5041703;28;61726;-75
2022/07/15 05:58:34;;;;;;;;;2.75;2.25;;;;;-146.67;28.57;74356.16;5040576;28;64839;-75
2022/07/15 06:00:59;;;;;;;;;3.00;3.00;;;;;-146.67;28.83;74340.19;5041188;28;61875;-76
2022/07/15 06:03:25;;;;;;;;;2.50;1.75;;;;;-146.67;28.78;74310.25;5042332;28;61828;-76
2022/07/15 06:05:50;;;;;;;;;4.00;3.00;;;;;-146.67;28.21;74300.28;5042440;28;61811;-75
2022/07/15 06:08:16;;;;;;;;;2.00;2.00;;;;;-146.67;28.67;74316.25;5046659;28;63552;-76
2022/07/15 06:10:42;;;;;;;;;3.50;3.50;;;;;-146.67;28.61;74322.22;5053795;28;61778;-76
2022/07/15 06:13:08;;;;;;;;;4.25;2.00;;;;;-146.67;28.57;74318.25;5046099;28;61889;-76
2022/07/15 06:15:36;;;;;;;;;1.00;1.00;;;;;-146.67;28.60;74314.25;5044205;28;62054;-76
2022/07/15 06:18:03;;;;;;;;;3.00;1.75;;;;;-146.67;28.46;74280.31;5045250;28;62728;-76
2022/07/15 06:20:29;;;;;;;;;4.25;3.00;;;;;-146.67;28.43;74262.34;5044962;28;61970;-76
2022/07/15 06:22:55;;;;;;;;;5.00;3.50;;;;;-146.67;28.07;74228.41;5045457;28;62062;-76
2022/07/15 06:25:20;;;;;;;;;3.00;3.00;;;;;-146.67;27.70;74166.50;5049186;28;62463;-76
2022/07/15 06:27:46;;;;;;;;;4.50;3.00;;;;;-146.67;26.64;74064.72;5046444;28;62046;-76
2022/07/15 06:30:12;;;;;;;;;5.00;3.25;;;;;-146.67;26.35;73940.94;5042445;28;61790;-76
2022/07/15 06:32:38;;;;;;;;;3.00;3.00;;;;;-146.67;26.05;73940.94;5045791;28;61807;-76
2022/07/15 06:35:04;;;;;;;;;5.25;2.00;;;;;-146.67;26.20;73958.91;5053942;28;61813;-76
2022/07/15 06:37:29;;;;;;;;;2.50;2.50;;;;;-146.67;26.28;73958.91;5060116;28;64957;-77
2022/07/15 06:39:55;;;;;;;;;2.00;2.00;;;;;-146.67;26.14;73982.88;5062011;28;61744;-76
2022/07/15 06:42:21;;;;;;;;;2.00;2.00;;;;;-146.67;25.96;73954.91;5060677;28;61924;-76
2022/07/15 06:44:47;;;;;;;;;2.00;2.00;;;;;-146.67;25.98;74000.81;5056034;28;62042;-77
2022/07/15 06:47:13;;;;;;;;;3.00;2.00;;;;;-146.67;26.33;74040.75;5063174;28;63712;-80
2022/07/15 06:49:38;;;;;;;;;3.00;3.00;;;;;-146.67;26.73;74082.69;5055816;28;61793;-79
2022/07/15 06:52:04;;;;;;;;;2.25;2.00;;;;;-146.67;26.82;74112.63;5057179;28;61849;-79
2022/07/15 06:54:30;;;;;;;;;2.50;2.00;;;;;-146.67;26.99;74142.56;5042587;28;62039;-78
2022/07/15 06:56:56;;;;;;;;;1.25;1.25;;;;;-146.67;26.93;74160.53;5043385;28;63916;-78
2022/07/15 06:59:22;;;;;;;;;1.50;1.50;;;;;-146.67;27.20;74172.50;5048987;28;61969;-75
2022/07/15 07:01:47;;;;;;;;;3.00;2.50;;;;;-146.67;26.89;74200.44;5064108;28;62037;-77
2022/07/15 07:04:13;;;;;;;;;2.00;2.00;;;;;-146.67;27.17;74224.41;5064023;28;62133;-77
2022/07/15 07:06:38;;;;;;;;;3.75;1.25;;;;;-146.67;27.07;74246.38;5059738;28;63720;-77
2022/07/15 07:09:04;;;;;;;;;1.75;1.00;;;;;-146.67;27.27;74270.31;5056686;28;61953;-77
2022/07/15 07:11:32;;;;;;;;;3.50;2.25;;;;;-146.67;27.41;74272.31;5065249;28;61853;-77
2022/07/15 07:13:59;;;;;;;;;3.75;2.00;;;;;-146.67;27.43;74276.31;5065171;28;61897;-77
2022/07/15 07:16:25;;;;;;;;;2.75;2.75;;;;;-146.67;27.14;74276.31;5053551;28;63764;-77
2022/07/15 07:18:51;;;;;;;;;5.00;3.00;;;;;-146.67;27.27;74282.31;5054260;28;61967;-77
2022/07/15 07:21:17;;;;;;;;;4.00;2.75;;;;;-146.67;27.23;74282.31;5056201;28;62005;-77
2022/07/15 07:23:43;;;;;;;;;1.75;1.75;;;;;-146.67;27.38;74288.28;5053280;28;61915;-77
2022/07/15 07:26:11;;;;;;;;;5.75;3.00;;;;;-146.67;27.47;74284.28;5056970;28;64775;-77
2022/07/15 07:28:39;;;;;;;;;2.75;2.75;;;;;-146.67;27.48;74278.31;5054080;28;61839;-77
2022/07/15 07:31:08;;;;;;;;;3.50;2.00;;;;;-146.67;27.32;74276.31;5050209;28;62001;-75
2022/07/15 07:33:34;;;;;;;;;2.00;1.75;;;;;-146.67;27.33;74266.34;5044541;28;61777;-75
2022/07/15 07:36:00;;;;;;;;;2.25;2.25;;;;;-146.67;27.19;74264.34;5049412;28;63245;-75
2022/07/15 07:38:25;;;;;;;;;2.00;2.00;;;;;-146.67;27.10;74268.31;5060492;28;61860;-74
2022/07/15 07:40:51;;;;;;;;;1.50;1.50;;;;;-146.67;27.15;74270.31;5064866;28;62411;-75
2022/07/15 07:43:18;;;;;;;;;1.50;1.50;;;;;-146.67;26.90;74264.34;5064521;28;62065;-74
2022/07/15 07:45:44;;;;;;;;;1.00;1.00;;;;;-146.67;27.14;74272.31;5063798;28;61804;-74
2022/07/15 07:48:13;;;;;;;;;4.00;2.00;;;;;-146.67;27.01;74270.31;5063252;28;62107;-75
2022/07/15 07:50:39;;;;;;;;;3.25;2.75;;;;;-146.67;27.08;74266.34;5064544;28;62123;-74
2022/07/15 07:53:05;;;;;;;;;3.00;2.00;;;;;-146.67;26.66;74254.34;5064887;28;61984;-75
2022/07/15 07:55:31;;;;;;;;;1.50;1.50;;;;;-146.67;26.64;74256.34;5063957;28;61964;-75
2022/07/15 07:57:57;;;;;;;;;2.25;2.25;;;;;-146.67;26.87;74250.38;5063287;28;61771;-75
2022/07/15 08:00:26;;;;;;;;;2.00;1.00;;;;;-146.67;26.68;74252.34;5063188;28;61820;-75
2022/07/15 08:02:52;;;;;;;;;2.00;2.00;;;;;-146.67;26.33;74248.38;5052491;28;62087;-75
2022/07/15 08:05:19;;;;;;;;;0.75;0.75;;;;;-146.67;26.33;74266.34;5056014;28;63466;-75
2022/07/15 08:07:45;;;;;;;;;2.00;1.00;;;;;-146.67;26.94;74262.34;5063236;28;62040;-75
2022/07/15 08:10:12;;;;;;;;;0.25;0.25;;;;;-146.67;26.47;74260.34;5063933;28;61909;-76
2022/07/15 08:12:38;;;;;;;;;5.25;1.00;;;;;-146.67;26.26;74264.34;5064397;28;61741;-74
2022/07/15 08:15:06;;;;;;;;;3.00;1.00;;;;;-146.67;26.27;74264.34;5059221;28;62147;-75
2022/07/15 08:17:31;;;;;;;;;3.00;2.00;;;;;-146.67;26.21;74260.34;5046466;28;61971;-74
2022/07/15 08:19:57;;;;;;;;;2.00;1.00;;;;;-146.67;26.40;74250.38;5042602;28;61994;-75
2022/07/15 08:22:22;;;;;;;;;3.75;2.25;;;;;-146.67;26.31;74254.34;5042669;28;61751;-75
2022/07/15 08:24:49;;;;;;;;;2.75;0.50;;;;;-146.67;26.30;74246.38;5043318;28;61813;-75
2022/07/15 08:27:15;;;;;;;;;2.75;1.50;;;;;-146.67;26.29;74246.38;5042247;28;62150;-75
2022/07/15 08:29:41;;;;;;;;;0.25;0.25;;;;;-146.67;25.94;74248.38;5043705;28;61815;-75
2022/07/15 08:32:06;;;;;;;;;3.00;1.75;;;;;-146.67;26.26;74260.34;5043974;28;61762;-75
2022/07/15 08:34:32;;;;;;;;;1.00;1.00;;;;;-146.67;26.10;74260.34;5043229;28;61761;-75
2022/07/15 08:36:57;;;;;;;;;2.00;1.00;;;;;-146.67;25.93;74264.34;5043401;28;61758;-74
2022/07/15 08:39:23;;;;;;;;;3.25;1.00;;;;;-146.67;26.14;74270.31;5042263;28;62159;-75
2022/07/15 08:41:51;;;;;;;;;1.00;0.75;;;;;-146.67;25.75;74264.34;5043794;28;61809;-75
2022/07/15 08:44:16;;;;;;;;;1.00;1.00;;;;;-146.67;26.02;74252.34;5042714;28;62969;-75
2022/07/15 08:46:45;;;;;;;;;1.25;1.00;;;;;-146.67;25.81;74252.34;5044506;28;61840;-75
2022/07/15 08:49:16;;;;;;;;;1.50;0.25;;;;;-146.67;25.87;74244.38;5049339;28;62056;-74
2022/07/15 08:51:44;;;;;;;;;0.00;0.00;;;;;-146.67;25.66;74238.38;5044257;28;62121;-75
2022/07/15 08:54:11;;;;;;;;;2.00;2.00;;;;;-146.67;25.63;74236.38;5041847;28;63573;-75
2022/07/15 08:56:37;;;;;;;;;1.00;1.00;;;;;-146.67;25.70;74228.41;5043523;28;61794;-75
2022/07/15 08:59:04;;;;;;;;;3.00;1.50;;;;;-146.67;25.56;74220.41;5041765;28;62007;-75
2022/07/15 09:01:31;;;;;;;;;3.00;1.00;;;;;-146.67;25.71;74228.41;5043331;28;62059;-75
2022/07/15 09:03:56;;;;;;;;;1.00;1.00;;;;;-146.67;25.66;74220.41;5042380;28;61896;-75
2022/07/15 09:06:38;;;;;;;;;0.75;0.75;;;;;-146.67;25.71;74232.41;5043140;28;62911;-74
2022/07/15 09:09:31;;;;;;;;;5.00;5.00;;;;;-146.67;25.71;74228.41;5051237;28;61772;-74
2022/07/15 09:12:02;;;;;;;;;1.00;1.00;;;;;-146.67;25.71;74238.38;5043376;28;61949;-74
2022/07/15 09:14:29;;;;;;;;;1.50;0.75;;;;;-146.67;25.28;74246.38;5040736;28;63874;-74
2022/07/15 09:17:10;;;;;;;;;2.25;0.50;;;;;-146.67;25.26;74236.38;5042978;28;61714;-75
2022/07/15 09:19:57;;;;;;;;;6.25;6.25;;;;;-146.67;25.39;74238.38;5041573;28;62000;-74
2022/07/15 09:22:24;;;;;;;;;1.00;1.00;;;;;-146.67;25.01;74234.38;5043038;28;61958;-74
2022/07/15 09:25:05;;;;;;;;;0.00;0.00;;;;;-146.67;25.16;74238.38;5040967;28;63742;-75
2022/07/15 09:27:38;;;;;;;;;1.25;0.75;;;;;-146.67;25.20;74240.38;5041275;28;61940;-74
2022/07/15 09:36:04;;;;;;;;;1.00;1.00;;;;;-146.67;24.97;74234.38;5041988;28;61848;-74
2022/07/15 09:38:40;;;;;;;;;0.25;0.25;;;;;-146.67;25.05;74228.41;5046218;28;61947;-74
2022/07/15 09:41:11;;;;;;;;;0.50;0.50;;;;;-146.67;24.87;74216.44;5062944;28;61904;-74
2022/07/15 09:43:49;;;;;;;;;0.50;0.50;;;;;-146.67;24.86;74216.44;5062751;28;61857;-75
2022/07/15 09:46:15;;;;;;;;;0.00;0.00;;;;;-146.67;24.65;74202.44;5052831;28;62921;-74
2022/07/15 09:48:43;;;;;;;;;1.50;1.50;;;;;-146.67;24.82;74188.47;5043853;28;61966;-74
2022/07/15 09:51:09;;;;;;;;;0.25;0.25;;;;;-146.67;24.57;74192.47;5042442;28;61761;-74
2022/07/15 09:53:36;;;;;;;;;0.50;0.50;;;;;-146.67;24.45;74174.50;5042785;28;61850;-74
2022/07/15 09:56:03;;;;;;;;;1.00;1.00;;;;;-146.67;24.39;74168.50;5059790;28;63433;-74
2022/07/15 09:58:29;;;;;;;;;1.00;1.00;;;;;-146.67;24.29;74162.53;5062524;28;61722;-74
2022/07/15 10:00:55;;;;;;;;;2.00;1.00;;;;;-146.67;24.39;74146.56;5061092;28;61989;-74
2022/07/15 10:03:23;;;;;;;;;0.67;0.67;;;;;-146.67;24.36;74134.56;5061550;28;61756;-74
2022/07/15 10:05:56;;;;;;;;;4.00;1.00;;;;;-146.67;24.15;74122.59;5060679;28;64357;-75
2022/07/15 10:08:22;;;;;;;;;0.25;0.25;;;;;-146.67;24.24;74112.63;5062360;28;62030;-74
2022/07/15 10:10:50;;;;;;;;;0.75;0.75;;;;;-146.67;24.05;74112.63;5062659;28;61928;-75
2022/07/15 10:13:37;;;;;;;;;0.00;0.00;;;;;-146.67;23.54;74106.63;5060832;28;61804;-75
2022/07/15 10:16:23;;;;;;;;;0.25;0.25;;;;;-146.67;23.65;74098.66;5061749;28;62804;-75
2022/07/15 10:19:02;;;;;;;;;2.00;1.00;;;;;-146.67;23.81;74074.69;5058472;28;61738;-74
2022/07/15 10:21:53;;;;;;;;;0.75;0.75;;;;;-146.67;23.76;74064.72;5062389;28;61971;-74
2022/07/15 10:24:39;;;;;;;;;0.75;0.75;;;;;-146.67;23.55;74046.75;5062477;28;61726;-75
2022/07/15 10:27:25;;;;;;;;;0.00;0.00;;;;;-146.67;23.68;74048.75;5061270;28;61895;-74
2022/07/15 10:29:51;;;;;;;;;0.00;0.00;;;;;-146.67;23.33;74032.75;5052887;28;62169;-73
2022/07/15 10:32:16;;;;;;;;;0.50;0.50;;;;;-146.67;23.34;74028.78;5061982;28;61939;-73
2022/07/15 10:34:42;;;;;;;;;0.00;0.00;;;;;-146.67;23.17;74008.81;5059085;28;61912;-73
2022/07/15 10:37:10;;;;;;;;;2.00;0.00;;;;;-146.67;22.68;74006.81;5042309;28;64908;-73
2022/07/15 10:39:55;;;;;;;;;0.33;0.00;;;;;-146.67;22.79;73988.84;5040976;28;61973;-73
2022/07/15 10:42:22;;;;;;;;;1.75;0.50;;;;;-146.67;22.97;73984.84;5039602;28;62005;-73
2022/07/15 10:45:08;;;;;;;;;1.00;0.00;;;;;-146.67;23.09;73984.84;5041655;28;61989;-73
2022/07/15 10:47:34;;;;;;;;;1.00;1.00;;;;;-146.67;22.96;73968.88;5040729;28;62841;-74
2022/07/15 10:50:00;;;;;;;;;0.00;0.00;;;;;-146.67;22.73;73952.91;5058469;28;61844;-74
2022/07/15 10:52:31;;;;;;;;;0.00;0.00;;;;;-146.67;22.96;73938.94;5061557;28;61973;-73
2022/07/15 10:54:57;;;;;;;;;0.00;0.00;;;;;-146.67;22.88;73936.94;5062183;28;62203;-73
2022/07/15 10:57:41;;;;;;;;;1.00;1.00;;;;;-146.67;22.79;73922.97;5061091;28;62045;-74
2022/07/15 11:00:26;;;;;;;;;0.00;0.00;;;;;-146.67;22.56;73915.00;5060477;28;62766;-73
2022/07/15 11:03:19;;;;;;;;;1.00;0.00;;;;;-146.67;22.39;73903.00;5061957;28;61866;-73
2022/07/15 11:05:45;;;;;;;;;0.00;0.00;;;;;-146.67;22.13;73879.06;5061683;28;61870;-74
2022/07/15 11:08:32;;;;;;;;;0.00;0.00;;;;;-146.67;22.60;73869.09;5061017;28;62553;-74
2022/07/15 11:11:15;;;;;;;;;0.00;0.00;;;;;-146.67;22.42;73861.09;5041512;28;61695;-74
2022/07/15 11:13:46;;;;;;;;;0.00;0.00;;;;;-146.67;22.14;73853.13;5040086;28;61977;-74
2022/07/15 11:16:13;;;;;;;;;1.00;0.00;;;;;-146.67;22.18;73839.13;5041524;28;61957;-74
2022/07/15 11:18:52;;;;;;;;;1.00;0.00;;;;;-146.67;22.66;73833.16;5041279;28;61770;-74
2022/07/15 11:21:19;;;;;;;;;0.33;0.33;;;;;-146.67;22.44;73825.16;5039813;28;61996;-74
2022/07/15 11:23:46;;;;;;;;;0.00;0.00;;;;;-146.67;22.27;73805.22;5040188;28;61727;-73
2022/07/15 11:26:11;;;;;;;;;1.67;0.00;;;;;-146.67;22.26;73793.22;5041232;28;61858;-73